X  Chiuso Dati meteorologici dell'aviazione (METAR)     LEAL Alicante-Elche Miguel Hernández Airport
Temperatura
8°C Temperatura
2°C Punto di rugiada
66% Umidità



Vento
10 KM/O
6 MPH
3 M/S
5 KTS



260°
O
Condizioni attuali

Chiaro Chiaro
Pressione 1017.95 (hPa) - 30.06 (inHg)
Visibilità 6 (miglio) - 9.7 (km)
Aeroporto
Codice-Aeroporto LEAL

Posizione: Alicante-Elche Miguel Hernández Airport
Distanza: 60 (km)

Metar:
LEAL 040530Z 26005KT CAVOK 08/02 Q1018 NOSIG

Ore: 04-12-2023 06:30 CET